sensor_id;sensor_type;location;lat;lon;timestamp;P1;durP1;ratioP1;P2;durP2;ratioP2
17702;SDS011;8970;48.104;-1.680;2022-08-01T00:00:14;3.98;;;2.02;;
17702;SDS011;8970;48.104;-1.680;2022-08-01T00:00:58;3.95;;;2.00;;
17702;SDS011;8970;48.104;-1.680;2022-08-01T00:01:35;4.33;;;1.95;;
17702;SDS011;8970;48.104;-1.680;2022-08-01T00:02:12;4.03;;;1.95;;
17702;SDS011;8970;48.104;-1.680;2022-08-01T00:02:49;5.53;;;2.37;;
17702;SDS011;8970;48.104;-1.680;2022-08-01T00:03:26;3.80;;;2.05;;
17702;SDS011;8970;48.104;-1.680;2022-08-01T00:04:02;5.60;;;2.10;;
17702;SDS011;8970;48.104;-1.680;2022-08-01T00:04:39;5.20;;;2.22;;
17702;SDS011;8970;48.104;-1.680;2022-08-01T00:05:16;4.25;;;2.15;;
17702;SDS011;8970;48.104;-1.680;2022-08-01T00:05:53;4.12;;;2.17;;
17702;SDS011;8970;48.104;-1.680;2022-08-01T00:06:29;3.50;;;2.05;;
17702;SDS011;8970;48.104;-1.680;2022-08-01T00:07:09;7.37;;;2.55;;
17702;SDS011;8970;48.104;-1.680;2022-08-01T00:07:46;4.65;;;2.55;;
17702;SDS011;8970;48.104;-1.680;2022-08-01T00:08:23;4.30;;;2.58;;
17702;SDS011;8970;48.104;-1.680;2022-08-01T00:08:59;5.05;;;3.05;;
17702;SDS011;8970;48.104;-1.680;2022-08-01T00:09:36;4.70;;;2.58;;
17702;SDS011;8970;48.104;-1.680;2022-08-01T00:10:21;8.58;;;3.20;;
17702;SDS011;8970;48.104;-1.680;2022-08-01T00:10:58;5.15;;;2.98;;
17702;SDS011;8970;48.104;-1.680;2022-08-01T00:11:34;4.60;;;3.22;;
17702;SDS011;8970;48.104;-1.680;2022-08-01T00:12:11;5.90;;;2.60;;
17702;SDS011;8970;48.104;-1.680;2022-08-01T00:12:47;5.28;;;2.95;;
17702;SDS011;8970;48.104;-1.680;2022-08-01T00:13:24;6.62;;;2.92;;
17702;SDS011;8970;48.104;-1.680;2022-08-01T00:14:09;5.70;;;2.27;;
17702;SDS011;8970;48.104;-1.680;2022-08-01T00:14:46;3.25;;;2.15;;
17702;SDS011;8970;48.104;-1.680;2022-08-01T00:15:23;4.47;;;2.72;;
17702;SDS011;8970;48.104;-1.680;2022-08-01T00:16:00;4.83;;;2.35;;
17702;SDS011;8970;48.104;-1.680;2022-08-01T00:16:36;5.55;;;2.58;;
17702;SDS011;8970;48.104;-1.680;2022-08-01T00:17:13;5.37;;;2.33;;
17702;SDS011;8970;48.104;-1.680;2022-08-01T00:17:50;6.78;;;3.05;;
17702;SDS011;8970;48.104;-1.680;2022-08-01T00:18:26;4.55;;;2.90;;
17702;SDS011;8970;48.104;-1.680;2022-08-01T00:19:05;5.45;;;3.10;;
17702;SDS011;8970;48.104;-1.680;2022-08-01T00:19:41;6.22;;;3.27;;
17702;SDS011;8970;48.104;-1.680;2022-08-01T00:20:18;5.50;;;3.20;;
17702;SDS011;8970;48.104;-1.680;2022-08-01T00:20:55;5.03;;;3.15;;
17702;SDS011;8970;48.104;-1.680;2022-08-01T00:21:31;8.00;;;3.83;;
17702;SDS011;8970;48.104;-1.680;2022-08-01T00:22:08;6.50;;;3.33;;
17702;SDS011;8970;48.104;-1.680;2022-08-01T00:22:45;6.25;;;3.67;;
17702;SDS011;8970;48.104;-1.680;2022-08-01T00:23:22;5.33;;;3.20;;
17702;SDS011;8970;48.104;-1.680;2022-08-01T00:23:59;6.08;;;2.98;;
17702;SDS011;8970;48.104;-1.680;2022-08-01T00:24:35;6.53;;;3.08;;
17702;SDS011;8970;48.104;-1.680;2022-08-01T00:25:57;5.00;;;3.12;;
17702;SDS011;8970;48.104;-1.680;2022-08-01T00:26:33;4.97;;;2.87;;
17702;SDS011;8970;48.104;-1.680;2022-08-01T00:27:10;5.97;;;2.90;;
17702;SDS011;8970;48.104;-1.680;2022-08-01T00:27:46;5.72;;;2.80;;
17702;SDS011;8970;48.104;-1.680;2022-08-01T00:28:27;5.55;;;2.70;;
17702;SDS011;8970;48.104;-1.680;2022-08-01T00:29:44;5.90;;;2.42;;
17702;SDS011;8970;48.104;-1.680;2022-08-01T00:30:21;3.65;;;2.40;;
17702;SDS011;8970;48.104;-1.680;2022-08-01T00:30:58;4.20;;;2.10;;
17702;SDS011;8970;48.104;-1.680;2022-08-01T00:31:34;4.50;;;2.35;;
17702;SDS011;8970;48.104;-1.680;2022-08-01T00:32:11;3.60;;;2.15;;
17702;SDS011;8970;48.104;-1.680;2022-08-01T00:32:48;3.70;;;2.58;;
17702;SDS011;8970;48.104;-1.680;2022-08-01T00:33:24;5.10;;;2.70;;
17702;SDS011;8970;48.104;-1.680;2022-08-01T00:34:02;4.15;;;2.85;;
17702;SDS011;8970;48.104;-1.680;2022-08-01T00:34:39;4.12;;;2.27;;
17702;SDS011;8970;48.104;-1.680;2022-08-01T00:35:16;4.92;;;2.87;;
17702;SDS011;8970;48.104;-1.680;2022-08-01T00:35:52;9.00;;;2.87;;
17702;SDS011;8970;48.104;-1.680;2022-08-01T00:36:29;4.55;;;2.45;;
17702;SDS011;8970;48.104;-1.680;2022-08-01T00:37:06;3.02;;;2.15;;
17702;SDS011;8970;48.104;-1.680;2022-08-01T00:37:42;4.62;;;2.50;;
17702;SDS011;8970;48.104;-1.680;2022-08-01T00:38:19;4.87;;;2.70;;
17702;SDS011;8970;48.104;-1.680;2022-08-01T00:38:56;5.92;;;2.58;;
17702;SDS011;8970;48.104;-1.680;2022-08-01T00:39:33;3.70;;;2.27;;
17702;SDS011;8970;48.104;-1.680;2022-08-01T00:40:10;3.22;;;2.62;;
17702;SDS011;8970;48.104;-1.680;2022-08-01T00:40:47;3.92;;;2.15;;
17702;SDS011;8970;48.104;-1.680;2022-08-01T00:41:24;4.75;;;2.80;;
17702;SDS011;8970;48.104;-1.680;2022-08-01T00:42:05;3.58;;;2.42;;
17702;SDS011;8970;48.104;-1.680;2022-08-01T00:42:41;4.28;;;2.33;;
17702;SDS011;8970;48.104;-1.680;2022-08-01T00:43:18;3.98;;;2.70;;
17702;SDS011;8970;48.104;-1.680;2022-08-01T00:43:55;4.40;;;2.55;;
17702;SDS011;8970;48.104;-1.680;2022-08-01T00:44:31;3.83;;;2.37;;
17702;SDS011;8970;48.104;-1.680;2022-08-01T00:45:09;2.87;;;2.10;;
17702;SDS011;8970;48.104;-1.680;2022-08-01T00:45:46;4.85;;;2.20;;
17702;SDS011;8970;48.104;-1.680;2022-08-01T00:47:07;3.02;;;2.40;;
17702;SDS011;8970;48.104;-1.680;2022-08-01T00:47:44;5.37;;;2.77;;
17702;SDS011;8970;48.104;-1.680;2022-08-01T00:48:21;5.22;;;2.37;;
17702;SDS011;8970;48.104;-1.680;2022-08-01T00:48:58;3.77;;;2.30;;
17702;SDS011;8970;48.104;-1.680;2022-08-01T00:49:35;4.70;;;2.58;;
17702;SDS011;8970;48.104;-1.680;2022-08-01T00:50:12;3.75;;;2.72;;
17702;SDS011;8970;48.104;-1.680;2022-08-01T00:50:50;4.15;;;2.67;;
17702;SDS011;8970;48.104;-1.680;2022-08-01T00:51:26;6.25;;;2.58;;
17702;SDS011;8970;48.104;-1.680;2022-08-01T00:52:03;4.50;;;2.35;;
17702;SDS011;8970;48.104;-1.680;2022-08-01T00:52:43;3.60;;;2.20;;
17702;SDS011;8970;48.104;-1.680;2022-08-01T00:53:27;4.75;;;2.55;;
17702;SDS011;8970;48.104;-1.680;2022-08-01T00:54:04;4.70;;;2.37;;
17702;SDS011;8970;48.104;-1.680;2022-08-01T00:54:41;3.95;;;2.42;;
17702;SDS011;8970;48.104;-1.680;2022-08-01T00:55:19;4.92;;;2.40;;
17702;SDS011;8970;48.104;-1.680;2022-08-01T00:55:55;3.27;;;2.45;;
17702;SDS011;8970;48.104;-1.680;2022-08-01T00:56:32;3.65;;;2.40;;
17702;SDS011;8970;48.104;-1.680;2022-08-01T00:57:09;4.70;;;1.98;;
17702;SDS011;8970;48.104;-1.680;2022-08-01T00:57:47;4.97;;;2.47;;
17702;SDS011;8970;48.104;-1.680;2022-08-01T00:58:24;4.90;;;2.05;;
17702;SDS011;8970;48.104;-1.680;2022-08-01T00:59:02;4.72;;;2.10;;
17702;SDS011;8970;48.104;-1.680;2022-08-01T00:59:40;3.67;;;2.27;;
17702;SDS011;8970;48.104;-1.680;2022-08-01T01:00:25;4.45;;;2.52;;
17702;SDS011;8970;48.104;-1.680;2022-08-01T01:01:02;2.60;;;2.30;;
17702;SDS011;8970;48.104;-1.680;2022-08-01T01:01:40;4.33;;;2.40;;
17702;SDS011;8970;48.104;-1.680;2022-08-01T01:02:18;4.78;;;2.40;;
17702;SDS011;8970;48.104;-1.680;2022-08-01T01:02:54;5.03;;;1.95;;
17702;SDS011;8970;48.104;-1.680;2022-08-01T01:03:31;3.25;;;2.52;;
17702;SDS011;8970;48.104;-1.680;2022-08-01T01:04:08;4.05;;;2.45;;
17702;SDS011;8970;48.104;-1.680;2022-08-01T01:04:44;4.75;;;2.37;;
17702;SDS011;8970;48.104;-1.680;2022-08-01T01:05:21;3.67;;;2.35;;
17702;SDS011;8970;48.104;-1.680;2022-08-01T01:06:01;4.47;;;2.47;;
17702;SDS011;8970;48.104;-1.680;2022-08-01T01:06:47;5.05;;;2.30;;
17702;SDS011;8970;48.104;-1.680;2022-08-01T01:07:32;4.03;;;2.27;;
17702;SDS011;8970;48.104;-1.680;2022-08-01T01:08:13;5.42;;;2.30;;
17702;SDS011;8970;48.104;-1.680;2022-08-01T01:08:53;3.55;;;2.30;;
17702;SDS011;8970;48.104;-1.680;2022-08-01T01:09:34;6.03;;;2.60;;
17702;SDS011;8970;48.104;-1.680;2022-08-01T01:10:15;5.67;;;2.50;;
17702;SDS011;8970;48.104;-1.680;2022-08-01T01:10:55;4.58;;;2.80;;
17702;SDS011;8970;48.104;-1.680;2022-08-01T01:11:41;4.85;;;2.45;;
17702;SDS011;8970;48.104;-1.680;2022-08-01T01:12:22;3.70;;;2.12;;
17702;SDS011;8970;48.104;-1.680;2022-08-01T01:13:05;3.30;;;2.30;;
17702;SDS011;8970;48.104;-1.680;2022-08-01T01:13:46;4.20;;;2.40;;
17702;SDS011;8970;48.104;-1.680;2022-08-01T01:14:30;3.90;;;2.20;;
17702;SDS011;8970;48.104;-1.680;2022-08-01T01:15:08;5.83;;;1.90;;
17702;SDS011;8970;48.104;-1.680;2022-08-01T01:15:47;3.92;;;2.70;;
17702;SDS011;8970;48.104;-1.680;2022-08-01T01:16:27;4.42;;;2.35;;
17702;SDS011;8970;48.104;-1.680;2022-08-01T01:17:10;3.00;;;2.35;;
17702;SDS011;8970;48.104;-1.680;2022-08-01T01:17:51;4.12;;;2.12;;
17702;SDS011;8970;48.104;-1.680;2022-08-01T01:18:32;4.78;;;2.40;;
17702;SDS011;8970;48.104;-1.680;2022-08-01T01:19:22;5.75;;;2.37;;
17702;SDS011;8970;48.104;-1.680;2022-08-01T01:19:57;5.00;;;2.20;;
17702;SDS011;8970;48.104;-1.680;2022-08-01T01:20:38;3.72;;;2.95;;
17702;SDS011;8970;48.104;-1.680;2022-08-01T01:21:35;5.72;;;3.37;;
17702;SDS011;8970;48.104;-1.680;2022-08-01T01:22:25;6.15;;;3.75;;
17702;SDS011;8970;48.104;-1.680;2022-08-01T01:23:19;5.55;;;3.33;;
17702;SDS011;8970;48.104;-1.680;2022-08-01T01:24:03;4.35;;;3.12;;
17702;SDS011;8970;48.104;-1.680;2022-08-01T01:24:45;6.90;;;3.10;;
17702;SDS011;8970;48.104;-1.680;2022-08-01T01:25:29;3.42;;;2.67;;
17702;SDS011;8970;48.104;-1.680;2022-08-01T01:26:40;4.90;;;3.22;;
17702;SDS011;8970;48.104;-1.680;2022-08-01T01:27:18;4.95;;;3.00;;
17702;SDS011;8970;48.104;-1.680;2022-08-01T01:28:01;4.83;;;3.20;;
17702;SDS011;8970;48.104;-1.680;2022-08-01T01:28:53;5.33;;;2.95;;
17702;SDS011;8970;48.104;-1.680;2022-08-01T01:29:40;6.55;;;3.17;;
17702;SDS011;8970;48.104;-1.680;2022-08-01T01:30:19;4.22;;;3.62;;
17702;SDS011;8970;48.104;-1.680;2022-08-01T01:30:56;5.05;;;3.02;;
17702;SDS011;8970;48.104;-1.680;2022-08-01T01:31:36;3.67;;;2.80;;
17702;SDS011;8970;48.104;-1.680;2022-08-01T01:32:18;4.47;;;2.67;;
17702;SDS011;8970;48.104;-1.680;2022-08-01T01:32:58;3.62;;;2.58;;
17702;SDS011;8970;48.104;-1.680;2022-08-01T01:33:37;5.85;;;2.80;;
17702;SDS011;8970;48.104;-1.680;2022-08-01T01:34:17;3.75;;;2.30;;
17702;SDS011;8970;48.104;-1.680;2022-08-01T01:34:55;3.35;;;2.33;;
17702;SDS011;8970;48.104;-1.680;2022-08-01T01:35:35;5.00;;;2.55;;
17702;SDS011;8970;48.104;-1.680;2022-08-01T01:36:13;4.10;;;2.37;;
17702;SDS011;8970;48.104;-1.680;2022-08-01T01:36:56;4.25;;;2.55;;
17702;SDS011;8970;48.104;-1.680;2022-08-01T01:37:37;4.42;;;2.10;;
17702;SDS011;8970;48.104;-1.680;2022-08-01T01:38:16;3.83;;;2.15;;
17702;SDS011;8970;48.104;-1.680;2022-08-01T01:38:55;3.70;;;2.30;;
17702;SDS011;8970;48.104;-1.680;2022-08-01T01:39:32;4.90;;;2.87;;
17702;SDS011;8970;48.104;-1.680;2022-08-01T01:40:11;5.87;;;2.67;;
17702;SDS011;8970;48.104;-1.680;2022-08-01T01:40:49;3.22;;;2.30;;
17702;SDS011;8970;48.104;-1.680;2022-08-01T01:41:27;3.30;;;2.50;;
17702;SDS011;8970;48.104;-1.680;2022-08-01T01:42:05;3.17;;;2.62;;
17702;SDS011;8970;48.104;-1.680;2022-08-01T01:42:43;4.60;;;2.90;;
17702;SDS011;8970;48.104;-1.680;2022-08-01T01:43:21;4.85;;;2.22;;
17702;SDS011;8970;48.104;-1.680;2022-08-01T01:43:59;5.05;;;2.27;;
17702;SDS011;8970;48.104;-1.680;2022-08-01T01:44:37;3.00;;;2.17;;
17702;SDS011;8970;48.104;-1.680;2022-08-01T01:45:14;3.02;;;2.58;;
17702;SDS011;8970;48.104;-1.680;2022-08-01T01:45:51;5.85;;;2.35;;
17702;SDS011;8970;48.104;-1.680;2022-08-01T01:47:11;4.22;;;2.25;;
17702;SDS011;8970;48.104;-1.680;2022-08-01T01:47:49;5.17;;;2.00;;
17702;SDS011;8970;48.104;-1.680;2022-08-01T01:48:27;5.30;;;2.50;;
17702;SDS011;8970;48.104;-1.680;2022-08-01T01:49:06;4.47;;;2.55;;
17702;SDS011;8970;48.104;-1.680;2022-08-01T01:49:46;4.22;;;2.42;;
17702;SDS011;8970;48.104;-1.680;2022-08-01T01:50:26;3.98;;;2.37;;
17702;SDS011;8970;48.104;-1.680;2022-08-01T01:51:03;5.25;;;2.52;;
17702;SDS011;8970;48.104;-1.680;2022-08-01T01:51:41;4.20;;;2.30;;
17702;SDS011;8970;48.104;-1.680;2022-08-01T01:52:19;4.78;;;2.70;;
17702;SDS011;8970;48.104;-1.680;2022-08-01T01:52:58;3.15;;;2.12;;
17702;SDS011;8970;48.104;-1.680;2022-08-01T01:53:44;3.02;;;2.12;;
17702;SDS011;8970;48.104;-1.680;2022-08-01T01:54:23;3.65;;;2.05;;
17702;SDS011;8970;48.104;-1.680;2022-08-01T01:55:04;3.72;;;2.30;;
17702;SDS011;8970;48.104;-1.680;2022-08-01T01:55:44;3.92;;;2.27;;
17702;SDS011;8970;48.104;-1.680;2022-08-01T01:56:22;3.12;;;2.08;;
17702;SDS011;8970;48.104;-1.680;2022-08-01T01:57:01;3.22;;;1.85;;
17702;SDS011;8970;48.104;-1.680;2022-08-01T01:57:40;3.50;;;2.08;;
17702;SDS011;8970;48.104;-1.680;2022-08-01T01:58:18;3.75;;;2.12;;
17702;SDS011;8970;48.104;-1.680;2022-08-01T01:58:58;3.67;;;2.37;;
17702;SDS011;8970;48.104;-1.680;2022-08-01T01:59:36;4.12;;;2.20;;
17702;SDS011;8970;48.104;-1.680;2022-08-01T02:00:16;5.67;;;2.50;;
17702;SDS011;8970;48.104;-1.680;2022-08-01T02:00:53;6.25;;;2.27;;
17702;SDS011;8970;48.104;-1.680;2022-08-01T02:01:39;2.30;;;2.05;;
17702;SDS011;8970;48.104;-1.680;2022-08-01T02:02:16;2.15;;;1.80;;
17702;SDS011;8970;48.104;-1.680;2022-08-01T02:02:54;3.52;;;2.02;;
17702;SDS011;8970;48.104;-1.680;2022-08-01T02:03:31;2.83;;;2.10;;
17702;SDS011;8970;48.104;-1.680;2022-08-01T02:04:18;5.40;;;2.15;;
17702;SDS011;8970;48.104;-1.680;2022-08-01T02:04:57;2.55;;;1.90;;
17702;SDS011;8970;48.104;-1.680;2022-08-01T02:05:34;6.85;;;2.02;;
17702;SDS011;8970;48.104;-1.680;2022-08-01T02:06:13;2.85;;;2.02;;
17702;SDS011;8970;48.104;-1.680;2022-08-01T02:06:51;6.15;;;2.30;;
17702;SDS011;8970;48.104;-1.680;2022-08-01T02:07:28;3.22;;;2.37;;
17702;SDS011;8970;48.104;-1.680;2022-08-01T02:08:06;4.60;;;2.00;;
17702;SDS011;8970;48.104;-1.680;2022-08-01T02:08:44;3.12;;;1.82;;
17702;SDS011;8970;48.104;-1.680;2022-08-01T02:09:23;2.67;;;1.75;;
17702;SDS011;8970;48.104;-1.680;2022-08-01T02:10:01;3.17;;;1.80;;
17702;SDS011;8970;48.104;-1.680;2022-08-01T02:10:39;4.42;;;2.30;;
17702;SDS011;8970;48.104;-1.680;2022-08-01T02:11:20;2.92;;;2.10;;
17702;SDS011;8970;48.104;-1.680;2022-08-01T02:11:57;2.20;;;1.60;;
17702;SDS011;8970;48.104;-1.680;2022-08-01T02:12:35;2.80;;;2.00;;
17702;SDS011;8970;48.104;-1.680;2022-08-01T02:13:14;2.85;;;1.95;;
17702;SDS011;8970;48.104;-1.680;2022-08-01T02:13:53;3.25;;;2.20;;
17702;SDS011;8970;48.104;-1.680;2022-08-01T02:14:35;3.50;;;1.80;;
17702;SDS011;8970;48.104;-1.680;2022-08-01T02:15:14;4.08;;;2.25;;
17702;SDS011;8970;48.104;-1.680;2022-08-01T02:15:52;5.03;;;2.30;;
17702;SDS011;8970;48.104;-1.680;2022-08-01T02:16:31;2.98;;;1.72;;
17702;SDS011;8970;48.104;-1.680;2022-08-01T02:17:15;3.33;;;1.90;;
17702;SDS011;8970;48.104;-1.680;2022-08-01T02:17:54;2.40;;;1.50;;
17702;SDS011;8970;48.104;-1.680;2022-08-01T02:18:32;2.60;;;1.70;;
17702;SDS011;8970;48.104;-1.680;2022-08-01T02:19:17;3.60;;;2.10;;
17702;SDS011;8970;48.104;-1.680;2022-08-01T02:19:54;3.75;;;2.02;;
17702;SDS011;8970;48.104;-1.680;2022-08-01T02:20:31;3.12;;;1.92;;
17702;SDS011;8970;48.104;-1.680;2022-08-01T02:21:19;3.60;;;1.90;;
17702;SDS011;8970;48.104;-1.680;2022-08-01T02:21:59;2.92;;;1.70;;
17702;SDS011;8970;48.104;-1.680;2022-08-01T02:22:44;3.80;;;1.77;;
17702;SDS011;8970;48.104;-1.680;2022-08-01T02:23:22;3.20;;;1.80;;
17702;SDS011;8970;48.104;-1.680;2022-08-01T02:24:02;5.62;;;2.17;;
17702;SDS011;8970;48.104;-1.680;2022-08-01T02:24:46;4.60;;;1.90;;
17702;SDS011;8970;48.104;-1.680;2022-08-01T02:25:25;4.10;;;1.50;;
17702;SDS011;8970;48.104;-1.680;2022-08-01T02:26:07;4.20;;;1.98;;
17702;SDS011;8970;48.104;-1.680;2022-08-01T02:26:49;4.40;;;2.05;;
17702;SDS011;8970;48.104;-1.680;2022-08-01T02:27:30;3.20;;;1.62;;
17702;SDS011;8970;48.104;-1.680;2022-08-01T02:28:25;2.72;;;1.92;;
17702;SDS011;8970;48.104;-1.680;2022-08-01T02:29:06;4.15;;;1.50;;
17702;SDS011;8970;48.104;-1.680;2022-08-01T02:29:47;2.92;;;1.52;;
17702;SDS011;8970;48.104;-1.680;2022-08-01T02:30:25;3.25;;;1.67;;
17702;SDS011;8970;48.104;-1.680;2022-08-01T02:31:05;2.70;;;1.60;;
17702;SDS011;8970;48.104;-1.680;2022-08-01T02:31:46;4.05;;;1.60;;
17702;SDS011;8970;48.104;-1.680;2022-08-01T02:32:25;3.92;;;1.72;;
17702;SDS011;8970;48.104;-1.680;2022-08-01T02:33:48;3.25;;;1.65;;
17702;SDS011;8970;48.104;-1.680;2022-08-01T02:34:28;2.15;;;1.52;;
17702;SDS011;8970;48.104;-1.680;2022-08-01T02:35:09;4.03;;;1.70;;
17702;SDS011;8970;48.104;-1.680;2022-08-01T02:35:48;5.12;;;2.08;;
17702;SDS011;8970;48.104;-1.680;2022-08-01T02:36:26;2.33;;;1.60;;
17702;SDS011;8970;48.104;-1.680;2022-08-01T02:37:05;7.00;;;2.08;;
17702;SDS011;8970;48.104;-1.680;2022-08-01T02:37:42;4.17;;;1.70;;
17702;SDS011;8970;48.104;-1.680;2022-08-01T02:38:22;3.60;;;1.67;;
17702;SDS011;8970;48.104;-1.680;2022-08-01T02:39:08;4.87;;;1.40;;
17702;SDS011;8970;48.104;-1.680;2022-08-01T02:39:47;2.90;;;1.90;;
17702;SDS011;8970;48.104;-1.680;2022-08-01T02:40:27;5.12;;;1.87;;
17702;SDS011;8970;48.104;-1.680;2022-08-01T02:41:07;3.35;;;1.70;;
17702;SDS011;8970;48.104;-1.680;2022-08-01T02:41:46;4.28;;;1.70;;
17702;SDS011;8970;48.104;-1.680;2022-08-01T02:42:25;2.83;;;1.90;;
17702;SDS011;8970;48.104;-1.680;2022-08-01T02:43:04;5.12;;;1.92;;
17702;SDS011;8970;48.104;-1.680;2022-08-01T02:43:45;2.58;;;1.52;;
17702;SDS011;8970;48.104;-1.680;2022-08-01T02:44:31;3.12;;;2.10;;
17702;SDS011;8970;48.104;-1.680;2022-08-01T02:45:10;6.60;;;1.80;;
17702;SDS011;8970;48.104;-1.680;2022-08-01T02:45:49;6.25;;;1.92;;
17702;SDS011;8970;48.104;-1.680;2022-08-01T02:46:33;1.92;;;1.60;;
17702;SDS011;8970;48.104;-1.680;2022-08-01T02:47:57;2.87;;;1.57;;
17702;SDS011;8970;48.104;-1.680;2022-08-01T02:48:36;3.72;;;1.80;;
17702;SDS011;8970;48.104;-1.680;2022-08-01T02:49:16;4.20;;;2.05;;
17702;SDS011;8970;48.104;-1.680;2022-08-01T02:50:39;3.90;;;1.70;;
17702;SDS011;8970;48.104;-1.680;2022-08-01T02:51:17;2.33;;;1.80;;
17702;SDS011;8970;48.104;-1.680;2022-08-01T02:51:58;2.52;;;1.60;;
17702;SDS011;8970;48.104;-1.680;2022-08-01T02:52:36;4.50;;;1.87;;
17702;SDS011;8970;48.104;-1.680;2022-08-01T02:53:14;5.05;;;1.70;;
17702;SDS011;8970;48.104;-1.680;2022-08-01T02:54:35;2.20;;;1.45;;
17702;SDS011;8970;48.104;-1.680;2022-08-01T02:55:13;3.37;;;1.20;;
17702;SDS011;8970;48.104;-1.680;2022-08-01T02:55:51;2.33;;;1.30;;
17702;SDS011;8970;48.104;-1.680;2022-08-01T02:56:29;1.87;;;1.50;;
17702;SDS011;8970;48.104;-1.680;2022-08-01T02:57:11;3.22;;;1.60;;
17702;SDS011;8970;48.104;-1.680;2022-08-01T02:57:49;3.45;;;1.60;;
17702;SDS011;8970;48.104;-1.680;2022-08-01T02:58:28;2.90;;;1.47;;
17702;SDS011;8970;48.104;-1.680;2022-08-01T02:59:06;2.22;;;1.40;;
17702;SDS011;8970;48.104;-1.680;2022-08-01T02:59:45;2.90;;;1.42;;
17702;SDS011;8970;48.104;-1.680;2022-08-01T03:00:24;2.70;;;1.50;;
17702;SDS011;8970;48.104;-1.680;2022-08-01T03:01:02;3.12;;;1.70;;
17702;SDS011;8970;48.104;-1.680;2022-08-01T03:01:40;2.15;;;1.40;;
17702;SDS011;8970;48.104;-1.680;2022-08-01T03:02:20;1.55;;;1.45;;
17702;SDS011;8970;48.104;-1.680;2022-08-01T03:03:40;2.85;;;1.60;;
17702;SDS011;8970;48.104;-1.680;2022-08-01T03:04:18;2.80;;;1.37;;
17702;SDS011;8970;48.104;-1.680;2022-08-01T03:04:57;2.15;;;1.22;;
17702;SDS011;8970;48.104;-1.680;2022-08-01T03:05:35;4.35;;;1.40;;
17702;SDS011;8970;48.104;-1.680;2022-08-01T03:06:13;2.72;;;1.30;;
17702;SDS011;8970;48.104;-1.680;2022-08-01T03:06:53;3.00;;;1.50;;
17702;SDS011;8970;48.104;-1.680;2022-08-01T03:07:32;2.12;;;1.17;;
17702;SDS011;8970;48.104;-1.680;2022-08-01T03:08:10;2.70;;;1.20;;
17702;SDS011;8970;48.104;-1.680;2022-08-01T03:08:48;3.65;;;1.30;;
17702;SDS011;8970;48.104;-1.680;2022-08-01T03:09:26;1.92;;;1.42;;
17702;SDS011;8970;48.104;-1.680;2022-08-01T03:10:05;3.50;;;1.30;;
17702;SDS011;8970;48.104;-1.680;2022-08-01T03:10:44;4.28;;;1.70;;
17702;SDS011;8970;48.104;-1.680;2022-08-01T03:11:23;2.20;;;1.37;;
17702;SDS011;8970;48.104;-1.680;2022-08-01T03:12:02;2.67;;;1.67;;
17702;SDS011;8970;48.104;-1.680;2022-08-01T03:12:47;1.50;;;1.30;;
17702;SDS011;8970;48.104;-1.680;2022-08-01T03:13:25;1.72;;;1.45;;
17702;SDS011;8970;48.104;-1.680;2022-08-01T03:14:05;6.90;;;1.55;;
17702;SDS011;8970;48.104;-1.680;2022-08-01T03:14:49;1.82;;;1.20;;
17702;SDS011;8970;48.104;-1.680;2022-08-01T03:15:29;1.42;;;1.30;;
17702;SDS011;8970;48.104;-1.680;2022-08-01T03:16:09;3.12;;;1.45;;
17702;SDS011;8970;48.104;-1.680;2022-08-01T03:16:48;1.77;;;1.22;;
17702;SDS011;8970;48.104;-1.680;2022-08-01T03:18:10;1.20;;;1.10;;
17702;SDS011;8970;48.104;-1.680;2022-08-01T03:18:49;3.20;;;1.50;;
17702;SDS011;8970;48.104;-1.680;2022-08-01T03:19:28;3.52;;;1.45;;
17702;SDS011;8970;48.104;-1.680;2022-08-01T03:20:07;2.17;;;1.30;;
17702;SDS011;8970;48.104;-1.680;2022-08-01T03:20:46;3.47;;;1.12;;
17702;SDS011;8970;48.104;-1.680;2022-08-01T03:21:24;1.45;;;1.10;;
17702;SDS011;8970;48.104;-1.680;2022-08-01T03:22:03;1.95;;;1.00;;
17702;SDS011;8970;48.104;-1.680;2022-08-01T03:22:47;1.57;;;1.20;;
17702;SDS011;8970;48.104;-1.680;2022-08-01T03:23:26;2.45;;;1.32;;
17702;SDS011;8970;48.104;-1.680;2022-08-01T03:24:05;1.62;;;0.98;;
17702;SDS011;8970;48.104;-1.680;2022-08-01T03:24:46;1.82;;;1.25;;
17702;SDS011;8970;48.104;-1.680;2022-08-01T03:25:35;1.12;;;1.02;;
17702;SDS011;8970;48.104;-1.680;2022-08-01T03:26:13;1.52;;;0.95;;
17702;SDS011;8970;48.104;-1.680;2022-08-01T03:26:50;3.40;;;1.30;;
17702;SDS011;8970;48.104;-1.680;2022-08-01T03:27:28;3.20;;;1.20;;
17702;SDS011;8970;48.104;-1.680;2022-08-01T03:28:06;1.62;;;1.15;;
17702;SDS011;8970;48.104;-1.680;2022-08-01T03:28:45;3.58;;;1.20;;
17702;SDS011;8970;48.104;-1.680;2022-08-01T03:29:23;1.72;;;1.00;;
17702;SDS011;8970;48.104;-1.680;2022-08-01T03:30:04;1.75;;;1.12;;
17702;SDS011;8970;48.104;-1.680;2022-08-01T03:30:44;1.50;;;1.05;;
17702;SDS011;8970;48.104;-1.680;2022-08-01T03:31:23;1.27;;;1.10;;
17702;SDS011;8970;48.104;-1.680;2022-08-01T03:32:01;2.10;;;1.07;;
17702;SDS011;8970;48.104;-1.680;2022-08-01T03:32:39;2.10;;;0.93;;
17702;SDS011;8970;48.104;-1.680;2022-08-01T03:33:16;3.37;;;1.42;;
17702;SDS011;8970;48.104;-1.680;2022-08-01T03:33:54;1.55;;;1.10;;
17702;SDS011;8970;48.104;-1.680;2022-08-01T03:34:31;3.10;;;1.10;;
17702;SDS011;8970;48.104;-1.680;2022-08-01T03:35:08;2.75;;;1.10;;
17702;SDS011;8970;48.104;-1.680;2022-08-01T03:35:47;2.00;;;0.98;;
17702;SDS011;8970;48.104;-1.680;2022-08-01T03:36:27;1.30;;;1.00;;
17702;SDS011;8970;48.104;-1.680;2022-08-01T03:37:09;1.35;;;0.93;;
17702;SDS011;8970;48.104;-1.680;2022-08-01T03:37:52;1.30;;;1.10;;
17702;SDS011;8970;48.104;-1.680;2022-08-01T03:38:31;2.55;;;1.30;;
17702;SDS011;8970;48.104;-1.680;2022-08-01T03:39:10;1.35;;;1.00;;
17702;SDS011;8970;48.104;-1.680;2022-08-01T03:39:50;1.80;;;1.10;;
17702;SDS011;8970;48.104;-1.680;2022-08-01T03:40:35;2.02;;;0.80;;
17702;SDS011;8970;48.104;-1.680;2022-08-01T03:41:16;1.37;;;0.82;;
17702;SDS011;8970;48.104;-1.680;2022-08-01T03:41:56;1.00;;;0.90;;
17702;SDS011;8970;48.104;-1.680;2022-08-01T03:42:37;1.17;;;0.98;;
17702;SDS011;8970;48.104;-1.680;2022-08-01T03:43:22;1.70;;;1.05;;
17702;SDS011;8970;48.104;-1.680;2022-08-01T03:44:03;1.10;;;1.00;;
17702;SDS011;8970;48.104;-1.680;2022-08-01T03:44:42;1.22;;;0.85;;
17702;SDS011;8970;48.104;-1.680;2022-08-01T03:45:28;1.65;;;1.00;;
17702;SDS011;8970;48.104;-1.680;2022-08-01T03:46:09;1.40;;;0.80;;
17702;SDS011;8970;48.104;-1.680;2022-08-01T03:47:31;1.40;;;0.90;;
17702;SDS011;8970;48.104;-1.680;2022-08-01T03:48:10;0.80;;;0.80;;
17702;SDS011;8970;48.104;-1.680;2022-08-01T03:48:49;1.32;;;0.75;;
17702;SDS011;8970;48.104;-1.680;2022-08-01T03:49:30;2.72;;;0.85;;
17702;SDS011;8970;48.104;-1.680;2022-08-01T03:50:13;2.05;;;0.90;;
17702;SDS011;8970;48.104;-1.680;2022-08-01T03:50:52;1.37;;;0.80;;
17702;SDS011;8970;48.104;-1.680;2022-08-01T03:51:29;1.32;;;0.62;;
17702;SDS011;8970;48.104;-1.680;2022-08-01T03:52:08;0.72;;;0.72;;
17702;SDS011;8970;48.104;-1.680;2022-08-01T03:52:45;1.65;;;0.60;;
17702;SDS011;8970;48.104;-1.680;2022-08-01T03:53:24;0.70;;;0.70;;
17702;SDS011;8970;48.104;-1.680;2022-08-01T03:54:03;1.20;;;0.93;;
17702;SDS011;8970;48.104;-1.680;2022-08-01T03:54:42;0.90;;;0.70;;
17702;SDS011;8970;48.104;-1.680;2022-08-01T03:55:21;1.10;;;0.70;;
17702;SDS011;8970;48.104;-1.680;2022-08-01T03:55:59;1.07;;;0.75;;
17702;SDS011;8970;48.104;-1.680;2022-08-01T03:56:37;0.70;;;0.70;;
17702;SDS011;8970;48.104;-1.680;2022-08-01T03:57:16;1.37;;;0.93;;
17702;SDS011;8970;48.104;-1.680;2022-08-01T03:57:54;1.27;;;0.80;;
17702;SDS011;8970;48.104;-1.680;2022-08-01T03:58:32;0.95;;;0.60;;
17702;SDS011;8970;48.104;-1.680;2022-08-01T03:59:10;0.65;;;0.65;;
17702;SDS011;8970;48.104;-1.680;2022-08-01T03:59:47;0.80;;;0.50;;
17702;SDS011;8970;48.104;-1.680;2022-08-01T04:00:25;1.62;;;0.68;;
17702;SDS011;8970;48.104;-1.680;2022-08-01T04:01:11;1.12;;;0.65;;
17702;SDS011;8970;48.104;-1.680;2022-08-01T04:01:48;1.40;;;0.70;;
17702;SDS011;8970;48.104;-1.680;2022-08-01T04:02:25;1.65;;;0.90;;
17702;SDS011;8970;48.104;-1.680;2022-08-01T04:03:03;0.60;;;0.60;;
17702;SDS011;8970;48.104;-1.680;2022-08-01T04:03:40;0.90;;;0.80;;
17702;SDS011;8970;48.104;-1.680;2022-08-01T04:04:17;0.98;;;0.70;;
17702;SDS011;8970;48.104;-1.680;2022-08-01T04:04:55;0.85;;;0.65;;